CheckWX is a tool to help pilots better visualize weather data.  It is not intended as a substitute for an official pre-flight weather briefing.

12:47:08 UTC

CYAY TAF
Saint Anthony Airport
St. Anthony, Canada
TAF AMD CYAY 220954Z 2209/2220 22012G22KT P6SM BKN060 TEMPO 2209/2218 5SM -SHSN OVC050 BECMG 2211/2213 22015G25KT FM221800 21013KT 6SM BR OVC020 RMK FCST BASED ON AUTO OBS. AUTO OBS REP NON-REPRESENTATIVE PCPN TYPE. NXT FCST BY 221400Z

Mar-22@
09:00 UTC

Mar-22 @ 09:00 UTC

Mar-22@
11:00 UTC

Mar-22 @ 11:00 UTC

TAF AMD CYAY 220954Z 2209/2220 22012G22KT P6SM BKN060

Expired

Wind
  • 220° at 12 KTS
  • {Gusting to 22 KTS
Cloud Levels
  • Broken at 6,000' AGL

Mar-22@
09:00 UTC

Mar-22 @ 09:00 UTC

Mar-22@
18:00 UTC

Mar-22 @ 18:00 UTC

TEMPO 2209/2218 5SM -SHSN OVC050

Temporary

Temporary Changes expected for less than half the time period

Conditions
Light Snow
Cloud Levels
  • Overcast at 5,000' AGL

Mar-22@
11:00 UTC

Mar-22 @ 11:00 UTC

Mar-22@
18:00 UTC

Mar-22 @ 18:00 UTC

BECMG 2211/2213 22015G25KT

Becoming

Becoming Conditions expected by Fri, Mar 22, 2019 @ 13:00 UTC

Wind
  • 220° at 15 KTS
  • {Gusting to 25 KTS
Cloud Levels
  • Broken at 6,000' AGL

Mar-22@
18:00 UTC

Mar-22 @ 18:00 UTC

Mar-22@
20:00 UTC

Mar-22 @ 20:00 UTC

FM221800 21013KT 6SM BR OVC020 RMK FCST BASED ON AUTO OBS. AUTO OBS REP NON-REPRESENTATIVE PCPN TYPE. NXT FCST BY 221400Z

From

From Standard forecast or significant change

Wind
  • 210° at 13 KTS
Conditions
Mist
Cloud Levels
  • Overcast at 2,000' AGL